createdAt,value
2019-02-26T00:04:49.111Z,8.39
2019-02-26T00:10:04.738Z,8.35
2019-02-26T00:15:13.963Z,8.21
2019-02-26T00:20:21.234Z,8.18
2019-02-26T00:25:30.405Z,7.97
2019-02-26T00:30:37.931Z,7.87
2019-02-26T00:35:53.926Z,7.90
2019-02-26T00:41:06.063Z,7.91
2019-02-26T00:46:17.381Z,7.87
2019-02-26T00:51:28.076Z,7.76
2019-02-26T00:56:42.532Z,7.73
2019-02-26T01:01:50.320Z,7.63
2019-02-26T01:06:59.587Z,7.40
2019-02-26T01:12:11.355Z,7.40
2019-02-26T01:17:23.975Z,7.30
2019-02-26T01:22:37.649Z,7.29
2019-02-26T01:27:48.221Z,7.17
2019-02-26T01:32:58.217Z,7.05
2019-02-26T01:38:07.720Z,6.90
2019-02-26T01:43:19.589Z,6.93
2019-02-26T01:48:29.922Z,6.90
2019-02-26T01:53:39.062Z,6.87
2019-02-26T01:58:56.882Z,6.85
2019-02-26T02:04:04.295Z,6.87
2019-02-26T02:09:19.938Z,6.81
2019-02-26T02:14:29.067Z,6.77
2019-02-26T02:19:38.172Z,6.60
2019-02-26T02:24:53.945Z,6.60
2019-02-26T02:30:03.222Z,6.52
2019-02-26T02:35:18.758Z,6.53
2019-02-26T02:40:31.019Z,6.52
2019-02-26T02:45:42.573Z,6.45
2019-02-26T02:50:55.478Z,6.40
2019-02-26T02:56:10.558Z,6.35
2019-02-26T03:01:24.432Z,6.28
2019-02-26T03:06:35.232Z,6.26
2019-02-26T03:11:46.465Z,6.20
2019-02-26T03:16:57.704Z,6.12
2019-02-26T03:22:10.484Z,6.00
2019-02-26T03:27:19.485Z,5.99
2019-02-26T03:32:30.506Z,5.90
2019-02-26T03:37:44.140Z,5.80
2019-02-26T03:42:57.767Z,5.81
2019-02-26T03:48:13.272Z,5.79
2019-02-26T03:53:28.066Z,5.63
2019-02-26T03:58:35.947Z,5.61
2019-02-26T04:03:46.842Z,5.61
2019-02-26T04:09:02.553Z,5.62
2019-02-26T04:14:12.668Z,5.55
2019-02-26T04:19:26.798Z,5.48
2019-02-26T04:24:38.639Z,5.39
2019-02-26T04:30:34.061Z,5.39
2019-02-26T04:36:19.784Z,5.37
2019-02-26T04:41:33.262Z,5.31
2019-02-26T04:47:05.318Z,5.27
2019-02-26T04:52:14.370Z,5.23
2019-02-26T04:57:24.934Z,5.21
2019-02-26T05:02:34.851Z,5.16
2019-02-26T05:07:47.173Z,5.10
2019-02-26T05:12:57.895Z,5.04
2019-02-26T05:18:07.796Z,4.99
2019-02-26T05:23:23.187Z,4.92
2019-02-26T05:28:37.781Z,4.85
2019-02-26T05:33:52.041Z,4.84
2019-02-26T05:39:03.686Z,4.84
2019-02-26T05:44:16.274Z,4.79
2019-02-26T05:49:24.319Z,4.75
2019-02-26T05:54:35.353Z,4.68
2019-02-26T05:59:47.174Z,4.67
2019-02-26T06:04:53.575Z,4.59
2019-02-26T06:10:03.508Z,4.59
2019-02-26T06:15:16.281Z,4.60
2019-02-26T06:20:32.071Z,4.47
2019-02-26T06:25:38.232Z,4.48
2019-02-26T06:30:48.704Z,4.42
2019-02-26T06:36:02.400Z,4.39
2019-02-26T06:41:12.942Z,4.39
2019-02-26T06:46:21.451Z,4.38
2019-02-26T06:51:31.497Z,4.36
2019-02-26T06:56:46.217Z,4.36
2019-02-26T07:01:56.053Z,4.40
2019-02-26T07:07:07.652Z,4.45
2019-02-26T07:12:14.601Z,4.53
2019-02-26T07:17:28.780Z,4.64
2019-02-26T07:22:39.266Z,4.63
2019-02-26T07:27:45.158Z,4.53
2019-02-26T07:32:57.105Z,4.63
2019-02-26T07:38:10.700Z,4.86
2019-02-26T07:43:22.694Z,4.99
2019-02-26T07:48:33.680Z,5.12
2019-02-26T07:53:50.631Z,5.26
2019-02-26T07:58:59.055Z,5.35
2019-02-26T08:04:11.187Z,5.47
2019-02-26T08:09:23.647Z,5.61
2019-02-26T08:14:34.917Z,5.86
2019-02-26T08:19:46.855Z,6.13
2019-02-26T08:24:58.138Z,6.41
2019-02-26T08:30:07.271Z,6.79
2019-02-26T08:35:20.726Z,7.20
2019-02-26T08:40:35.076Z,7.39
2019-02-26T08:45:44.136Z,7.74
2019-02-26T08:50:52.693Z,8.07
2019-02-26T08:56:04.072Z,8.50
2019-02-26T09:01:12.957Z,8.82
2019-02-26T09:06:25.579Z,9.16
2019-02-26T09:11:36.928Z,9.55
2019-02-26T09:16:51.889Z,9.64
2019-02-26T09:22:02.343Z,9.98
2019-02-26T09:27:08.718Z,10.23
2019-02-26T09:32:21.538Z,10.41
2019-02-26T09:37:35.314Z,10.53
2019-02-26T09:42:51.689Z,10.72
2019-02-26T09:48:01.085Z,11.16
2019-02-26T09:53:11.756Z,11.28
2019-02-26T09:58:25.310Z,11.75
2019-02-26T10:03:38.530Z,14.39
2019-02-26T10:08:48.459Z,17.14
2019-02-26T10:13:56.586Z,18.64
2019-02-26T10:19:23.734Z,19.89
2019-02-26T10:24:38.013Z,21.70
2019-02-26T10:29:49.950Z,23.14
2019-02-26T10:34:58.053Z,24.35
2019-02-26T10:40:10.158Z,25.61
2019-02-26T10:45:20.459Z,25.69
2019-02-26T10:50:31.340Z,26.99
2019-02-26T10:55:41.888Z,27.50
2019-02-26T11:00:55.721Z,25.60
2019-02-26T11:06:07.291Z,26.61
2019-02-26T11:11:18.210Z,28.40
2019-02-26T11:16:31.000Z,28.94
2019-02-26T11:21:40.698Z,27.71
2019-02-26T11:26:49.815Z,28.30
2019-02-26T11:32:01.687Z,28.86
2019-02-26T11:37:13.132Z,29.63
2019-02-26T11:42:26.182Z,28.91
2019-02-26T11:47:41.325Z,30.21
2019-02-26T11:52:54.734Z,31.85
2019-02-26T11:58:10.049Z,31.50
2019-02-26T12:03:22.731Z,28.80
2019-02-26T12:08:37.053Z,29.64
2019-02-26T12:13:50.217Z,30.99
2019-02-26T12:18:58.860Z,29.53
2019-02-26T12:24:28.852Z,30.64
2019-02-26T12:29:42.676Z,31.78
2019-02-26T12:34:57.610Z,31.35
2019-02-26T12:40:16.056Z,32.25
2019-02-26T12:45:26.186Z,33.30
2019-02-26T12:50:34.210Z,34.30
2019-02-26T12:55:42.408Z,34.39
2019-02-26T13:00:49.388Z,33.77
2019-02-26T13:06:05.164Z,33.07
2019-02-26T13:11:14.046Z,35.10
2019-02-26T13:16:26.489Z,34.83
2019-02-26T13:21:43.206Z,33.26
2019-02-26T13:26:59.593Z,34.81
2019-02-26T13:32:13.661Z,37.31
2019-02-26T13:37:19.787Z,37.34
2019-02-26T13:42:29.710Z,37.14
2019-02-26T13:47:39.593Z,37.08
2019-02-26T13:52:47.828Z,36.11
2019-02-26T13:58:04.760Z,35.21
2019-02-26T14:03:12.107Z,35.84
2019-02-26T14:08:27.404Z,36.77
2019-02-26T14:13:39.195Z,36.94
2019-02-26T14:18:50.991Z,36.06
2019-02-26T14:24:00.365Z,35.94
2019-02-26T14:29:14.085Z,35.39
2019-02-26T14:34:26.674Z,37.03
2019-02-26T14:39:35.159Z,36.71
2019-02-26T14:44:44.807Z,36.85
2019-02-26T14:49:59.537Z,37.13
2019-02-26T14:55:13.303Z,34.93
2019-02-26T15:00:31.015Z,29.75
2019-02-26T15:05:42.822Z,27.62
2019-02-26T15:10:55.699Z,26.82
2019-02-26T15:16:04.037Z,25.58
2019-02-26T15:21:12.999Z,24.63
2019-02-26T15:26:25.643Z,23.73
2019-02-26T15:31:34.085Z,23.68
2019-02-26T15:36:45.837Z,23.08
2019-02-26T15:41:55.781Z,23.05
2019-02-26T15:47:06.640Z,22.73
2019-02-26T15:52:21.443Z,22.63
2019-02-26T15:57:32.486Z,22.21
2019-02-26T16:02:42.442Z,22.10
2019-02-26T16:07:52.613Z,22.15
2019-02-26T16:13:07.093Z,22.18
2019-02-26T16:18:16.966Z,21.94
2019-02-26T16:23:25.168Z,21.66
2019-02-26T16:28:37.783Z,21.46
2019-02-26T16:33:50.278Z,21.21
2019-02-26T16:39:00.295Z,21.02
2019-02-26T16:44:12.780Z,21.05
2019-02-26T16:49:25.837Z,21.10
2019-02-26T16:54:35.367Z,20.89
2019-02-26T16:59:47.186Z,20.69
2019-02-26T17:04:58.910Z,20.57
2019-02-26T17:10:09.065Z,20.55
2019-02-26T17:16:23.879Z,20.22
2019-02-26T17:21:37.543Z,20.08
2019-02-26T17:26:50.124Z,19.85
2019-02-26T17:32:04.721Z,19.53
2019-02-26T17:37:20.114Z,19.37
2019-02-26T17:42:28.205Z,19.19
2019-02-26T17:47:38.310Z,19.03
2019-02-26T17:52:46.504Z,18.77
2019-02-26T17:58:00.768Z,18.47
2019-02-26T18:03:10.439Z,18.10
2019-02-26T18:08:24.903Z,17.73
2019-02-26T18:13:37.256Z,17.46
2019-02-26T18:18:47.400Z,17.39
2019-02-26T18:23:54.643Z,17.19
2019-02-26T18:29:00.878Z,17.00
2019-02-26T18:34:11.769Z,16.78
2019-02-26T18:39:22.634Z,16.26
2019-02-26T18:44:33.036Z,16.22
2019-02-26T18:49:43.558Z,16.04
2019-02-26T18:54:54.348Z,15.76
2019-02-26T19:00:01.629Z,15.69
2019-02-26T19:05:11.685Z,15.67
2019-02-26T19:10:21.145Z,15.50
2019-02-26T19:15:29.899Z,15.39
2019-02-26T19:20:44.336Z,15.07
2019-02-26T19:25:56.935Z,15.05
2019-02-26T19:31:09.381Z,14.96
2019-02-26T19:36:15.333Z,14.87
2019-02-26T19:41:28.543Z,14.73
2019-02-26T19:46:36.587Z,14.57
2019-02-26T19:51:44.202Z,14.39
2019-02-26T19:56:54.708Z,14.29
2019-02-26T20:02:06.764Z,14.15
2019-02-26T20:07:17.519Z,13.96
2019-02-26T20:12:31.789Z,13.83
2019-02-26T20:17:48.943Z,13.70
2019-02-26T20:22:56.265Z,13.49
2019-02-26T20:28:09.000Z,13.38
2019-02-26T20:33:19.827Z,13.25
2019-02-26T20:38:35.083Z,13.13
2019-02-26T20:43:41.359Z,13.03
2019-02-26T20:48:55.107Z,12.91
2019-02-26T20:54:03.234Z,12.76
2019-02-26T20:59:17.553Z,12.62
2019-02-26T21:04:28.580Z,12.52
2019-02-26T21:09:40.791Z,12.40
2019-02-26T21:14:53.831Z,12.30
2019-02-26T21:20:08.218Z,12.13
2019-02-26T21:25:19.494Z,12.02
2019-02-26T21:30:29.917Z,11.91
2019-02-26T21:35:38.861Z,11.79
2019-02-26T21:40:52.082Z,11.70
2019-02-26T21:46:02.439Z,11.57
2019-02-26T21:51:11.590Z,11.37
2019-02-26T21:56:24.214Z,11.24
2019-02-26T22:01:35.114Z,11.19
2019-02-26T22:06:47.074Z,10.86
2019-02-26T22:11:58.090Z,10.64
2019-02-26T22:17:07.501Z,10.72
2019-02-26T22:22:20.971Z,10.79
2019-02-26T22:27:40.527Z,10.64
2019-02-26T22:32:52.319Z,10.36
2019-02-26T22:38:01.385Z,10.39
2019-02-26T22:43:13.770Z,10.24
2019-02-26T22:48:26.020Z,10.08
2019-02-26T22:53:36.574Z,10.01
2019-02-26T22:58:43.813Z,10.02
2019-02-26T23:03:54.920Z,9.98
2019-02-26T23:09:03.185Z,9.97
2019-02-26T23:14:14.802Z,9.95
2019-02-26T23:19:22.118Z,9.96
2019-02-26T23:24:33.080Z,9.95
2019-02-26T23:29:39.945Z,9.87
2019-02-26T23:35:06.064Z,9.78
2019-02-26T23:40:13.358Z,9.67
2019-02-26T23:45:25.717Z,9.62
2019-02-26T23:50:38.108Z,9.68
2019-02-26T23:55:48.863Z,9.72
